ADDS METAR Data INFO
IDs: Format: Raw Decoded Include TAF

Data at: 2250 UTC 16 Jan 2018

PAHC 162156Z AUTO VRB06KT 10SM CLR M06/M07 A2941 RMK AO2 SLP964 T10561067 FZRANO
PAHC 162056Z AUTO 34007KT 300V020 10SM CLR M06/M07 A2942 RMK AO2 SLP968 T10561067 58007 FZRANO
PAHC 161956Z AUTO 30009G14KT 280V340 10SM CLR M06/M07 A2944 RMK AO2 SLP972 T10561067 FZRANO
PAHC 161856Z AUTO 32010G19KT 10SM CLR M06/M07 A2945 RMK AO2 SLP976 T10561067 FZRANO
PAHC 161756Z AUTO 31009G17KT 10SM CLR M06/M06 A2944 RMK AO2 SLP975 T10561061 11011 21056 58009 FZRANO
PAHC 161656Z AUTO 17004KT 10SM CLR M05/M06 A2946 RMK AO2 SLP979 T10501061 FZRANO
PAHC 161556Z AUTO VRB04KT 10SM CLR M05/M06 A2947 RMK AO2 SLP983 T10501061 FZRANO
PAHC 161456Z AUTO 00000KT 10SM FEW050 M03/M04 A2947 RMK AO2 SLP984 T10331044 58009 FZRANO
PAHC 161356Z AUTO VRB04KT 10SM OVC055 M02/M03 A2948 RMK AO2 SLP988 T10171028 FZRANO
PAHC 161256Z AUTO 02005KT 10SM BKN055 M02/M03 A2949 RMK AO2 SLP992 T10171028 FZRANO
PAHC 161156Z AUTO 01004KT 10SM OVC055 M01/M02 A2950 RMK AO2 SLP994 T10111022 10011 21033 58001 FZRANO
PAHC 161056Z AUTO 04003KT 10SM OVC060 M01/M03 A2950 RMK AO2 SLP996 T10111028 FZRANO
PAHC 160956Z AUTO 02003KT 10SM OVC060 M02/M02 A2950 RMK AO2 SLP995 T10171022 FZRANO
PAHC 160856Z AUTO 00000KT 10SM CLR M02/M03 A2950 RMK AO2 SLP994 T10171028 400441017 51007 FZRANO
PAHC 160756Z AUTO 00000KT 10SM SCT060 00/M02 A2950 RMK AO2 SLP993 T00001022 FZRANO
PAHC 160656Z AUTO 00000KT 10SM OVC060 01/M02 A2949 RMK AO2 SLP990 T00061017 FZRANO
PAHC 160556Z AUTO 02003KT 10SM OVC065 01/M02 A2948 RMK AO2 SLP987 T00111022 10028 20006 53013 FZRANO
PAHC 160456Z AUTO 00000KT 10SM BKN065 01/M02 A2946 RMK AO2 SLP982 T00111022 FZRANO
PAHC 160356Z AUTO 00000KT 10SM OVC065 02/M02 A2945 RMK AO2 SLP979 T00171022 FZRANO
PAHC 160256Z AUTO 00000KT 10SM OVC060 02/M02 A2944 RMK AO2 SLP974 T00171017 53014 FZRANO
PAHC 160156Z AUTO 00000KT 10SM OVC060 02/M02 A2942 RMK AO2 SLP968 T00221017 FZRANO
PAHC 160056Z AUTO 09003KT 10SM FEW060 03/M02 A2941 RMK AO2 SLP964 T00281017
PAHC 152356Z AUTO 03004KT 10SM OVC055 03/M01 A2940 RMK AO2 SLP960 T00281011 10033 21011 51021
PAHC 152256Z AUTO VRB03KT 10SM OVC055 03/M01 A2939 RMK AO2 SLP956 T00281011
PAHC 152156Z AUTO 00000KT 10SM BKN055 02/M01 A2936 RMK AO2 SLP948 T00221011 FZRANO
PAHC 152056Z AUTO 00000KT 10SM OVC050 01/M01 A2934 RMK AO2 SLP939 T00061011 51033 FZRANO
PAHC 151956Z AUTO 00000KT 10SM OVC060 M01/M02 A2931 RMK AO2 SLP928 T10061022 FZRANO
PAHC 151856Z AUTO 00000KT 10SM CLR 02/M01 A2927 RMK AO2 SLP918 T00171011 FZRANO
PAHC 151756Z AUTO 00000KT 10SM FEW080 02/M01 A2924 RMK AO2 SLP906 T00221006 10039 20022 53020 FZRANO
PAHC 151656Z AUTO VRB03KT 10SM SCT080 03/M01 A2921 RMK AO2 SLP897 T00281006
PAHC 151556Z AUTO 13007KT 10SM OVC060 03/M01 A2920 RMK AO2 SLP892 T00331006
PAHC 151456Z AUTO VRB03KT 10SM OVC070 03/M01 A2918 RMK AO2 SLP886 T00331006 53019
PAHC 151356Z AUTO VRB05KT 10SM OVC080 03/M01 A2915 RMK AO2 SLP877 T00331006
PAHC 151256Z AUTO 10007KT 10SM BKN070 OVC085 04/M01 A2914 RMK AO2 SLP872 T00391006
PAHC 151156Z AUTO 08006KT 10SM FEW027 SCT042 BKN080 04/M01 A2912 RMK AO2 SLP867 T00391006 10050 20039 51021
PAHC 151056Z AUTO VRB05KT 10SM FEW040 OVC065 04/M01 A2910 RMK AO2 SLP860 T00391006